Terminal Aerodrome Forecast
Issued by NWS Sterling, VA

Current Version | Previous Version | Text Only | Print | Product List | Glossary Off
Versions: 1 2 3 4 5 6 7 8 9 10 11 12 13 14 15 16 17 18 19 20 21 22 23 24

000
FTUS41 KLWX 151700
TAFIAD
TAF
KIAD 151729Z 1518/1624 18004KT P6SM SCT050 SCT200
     FM152200 VRB03KT P6SM SCT050 BKN200
     FM160600 VRB03KT P6SM BKN050
     FM161200 32005KT P6SM BKN050
     FM161400 33010G18KT P6SM SCT050
     FM162100 34007KT P6SM FEW050=

USA.gov is the U.S. government's official web portal to all federal, state and local government web resources and services.